createdAt,value
2023-05-14T00:00:30.222Z,94.83
2023-05-14T00:01:30.232Z,95.03
2023-05-14T00:02:30.282Z,94.56
2023-05-14T00:03:30.334Z,93.43
2023-05-14T00:04:30.211Z,94.05
2023-05-14T00:05:30.188Z,94.98
2023-05-14T00:06:30.155Z,94.46
2023-05-14T00:07:30.147Z,94.15
2023-05-14T00:08:30.144Z,94.77
2023-05-14T00:09:30.142Z,96.21
2023-05-14T00:10:30.181Z,96.15
2023-05-14T00:11:30.155Z,95.84
2023-05-14T00:12:30.127Z,96.46
2023-05-14T00:13:30.087Z,96.77
2023-05-14T00:14:30.079Z,96.25
2023-05-14T00:15:31.762Z,96.67
2023-05-14T00:16:30.218Z,96.56
2023-05-14T00:17:30.088Z,96.15
2023-05-14T00:18:30.079Z,95.74
2023-05-14T00:19:30.047Z,95.43
2023-05-14T00:20:30.057Z,97.69
2023-05-14T00:21:30.036Z,97.39
2023-05-14T00:22:29.996Z,96.77
2023-05-14T00:23:29.991Z,96.46
2023-05-14T00:24:30.009Z,96.56
2023-05-14T00:25:29.998Z,97.69
2023-05-14T00:26:29.966Z,99.04
2023-05-14T00:27:29.957Z,99.96
2023-05-14T00:28:29.930Z,99.14
2023-05-14T00:29:29.960Z,98.72
2023-05-14T00:30:29.970Z,99.55
2023-05-14T00:31:30.007Z,99.34
2023-05-14T00:32:29.934Z,99.99
2023-05-14T00:33:29.892Z,99.99
2023-05-14T00:34:29.935Z,99.99
2023-05-14T00:35:29.866Z,99.99
2023-05-14T00:36:29.883Z,99.60
2023-05-14T00:37:29.884Z,99.81
2023-05-14T00:38:29.832Z,99.51
2023-05-14T00:39:29.875Z,98.58
2023-05-14T00:40:29.823Z,97.75
2023-05-14T00:41:29.821Z,98.16
2023-05-14T00:42:29.798Z,97.18
2023-05-14T00:43:29.807Z,97.28
2023-05-14T00:44:29.833Z,96.97
2023-05-14T00:45:29.780Z,97.08
2023-05-14T00:46:29.815Z,97.18
2023-05-14T00:47:29.782Z,98.72
2023-05-14T00:48:29.769Z,98.83
2023-05-14T00:49:29.735Z,99.65
2023-05-14T00:50:29.728Z,98.52
2023-05-14T00:51:29.700Z,98.00
2023-05-14T00:52:29.709Z,98.21
2023-05-14T00:53:29.721Z,98.46
2023-05-14T00:54:29.691Z,98.25
2023-05-14T00:55:29.668Z,98.88
2023-05-14T00:56:29.651Z,99.80
2023-05-14T00:57:29.662Z,99.99
2023-05-14T00:58:29.724Z,99.99
2023-05-14T00:59:29.631Z,99.44
2023-05-14T01:00:29.618Z,99.99
2023-05-14T01:01:29.768Z,99.99
2023-05-14T01:02:29.728Z,99.24
2023-05-14T01:03:29.698Z,98.57
2023-05-14T01:04:29.581Z,98.88
2023-05-14T01:05:29.574Z,99.49
2023-05-14T01:06:29.550Z,99.60
2023-05-14T01:07:29.570Z,98.67
2023-05-14T01:08:29.533Z,97.85
2023-05-14T01:09:29.525Z,98.46
2023-05-14T01:10:29.542Z,99.70
2023-05-14T01:11:29.542Z,99.99
2023-05-14T01:12:29.557Z,99.99
2023-05-14T01:13:29.516Z,99.99
2023-05-14T01:14:29.488Z,99.80
2023-05-14T01:15:29.456Z,99.18
2023-05-14T01:16:29.528Z,99.39
2023-05-14T01:17:29.477Z,99.18
2023-05-14T01:18:29.491Z,99.60
2023-05-14T01:19:29.431Z,99.90
2023-05-14T01:20:29.411Z,99.29
2023-05-14T01:21:29.428Z,99.99
2023-05-14T01:22:29.416Z,99.99
2023-05-14T01:23:29.382Z,99.74
2023-05-14T01:24:29.398Z,99.43
2023-05-14T01:25:29.358Z,98.92
2023-05-14T01:26:29.378Z,98.92
2023-05-14T01:27:29.373Z,98.92
2023-05-14T01:28:29.356Z,99.07
2023-05-14T01:29:29.321Z,99.99
2023-05-14T01:30:29.340Z,99.99
2023-05-14T01:31:29.374Z,99.99
2023-05-14T01:32:29.330Z,99.99
2023-05-14T01:33:29.308Z,99.99
2023-05-14T01:34:29.323Z,99.99
2023-05-14T01:35:29.316Z,99.99
2023-05-14T01:36:29.263Z,99.99
2023-05-14T01:37:29.235Z,99.99
2023-05-14T01:38:29.249Z,99.99
2023-05-14T01:39:29.260Z,99.99
2023-05-14T01:40:29.252Z,99.99
2023-05-14T01:41:29.208Z,99.99
2023-05-14T01:42:29.211Z,99.99
2023-05-14T01:43:29.294Z,99.99
2023-05-14T01:44:29.198Z,99.99
2023-05-14T01:45:29.155Z,99.99
2023-05-14T01:46:29.233Z,99.99
2023-05-14T01:47:29.181Z,99.99
2023-05-14T01:48:29.135Z,99.99
2023-05-14T01:49:29.184Z,99.99
2023-05-14T01:50:29.122Z,99.99
2023-05-14T01:51:29.096Z,99.99
2023-05-14T01:52:29.091Z,99.99
2023-05-14T01:53:29.168Z,99.99
2023-05-14T01:54:29.116Z,99.99
2023-05-14T01:55:29.067Z,99.99
2023-05-14T01:56:29.055Z,99.99
2023-05-14T01:57:29.067Z,99.99
2023-05-14T01:58:29.061Z,99.99
2023-05-14T01:59:29.033Z,99.99
2023-05-14T02:00:29.017Z,99.99
2023-05-14T02:01:29.008Z,99.99
2023-05-14T02:02:29.011Z,99.99
2023-05-14T02:03:29.067Z,99.99
2023-05-14T02:04:28.977Z,99.99
2023-05-14T02:05:28.959Z,99.99
2023-05-14T02:06:28.948Z,99.99
2023-05-14T02:07:28.959Z,99.99
2023-05-14T02:08:28.966Z,99.99
2023-05-14T02:09:28.931Z,99.99
2023-05-14T02:10:28.907Z,99.99
2023-05-14T02:11:28.902Z,99.99
2023-05-14T02:12:28.920Z,99.99
2023-05-14T02:13:28.880Z,99.99
2023-05-14T02:14:28.902Z,99.99
2023-05-14T02:15:28.866Z,99.99
2023-05-14T02:16:28.889Z,99.99
2023-05-14T02:17:28.875Z,99.99
2023-05-14T02:18:28.860Z,99.99
2023-05-14T02:19:28.830Z,99.99
2023-05-14T02:20:28.812Z,99.99
2023-05-14T02:21:28.861Z,99.99
2023-05-14T02:22:28.822Z,99.99
2023-05-14T02:23:40.432Z,99.99
2023-05-14T02:24:28.783Z,99.99
2023-05-14T02:25:28.776Z,99.99
2023-05-14T02:26:28.783Z,99.99
2023-05-14T02:27:28.737Z,99.99
2023-05-14T02:28:28.745Z,99.99
2023-05-14T02:29:28.732Z,99.99
2023-05-14T02:30:28.715Z,99.99
2023-05-14T02:31:28.836Z,99.99
2023-05-14T02:32:28.809Z,99.99
2023-05-14T02:33:28.758Z,99.99
2023-05-14T02:34:28.679Z,99.99
2023-05-14T02:35:28.699Z,99.99
2023-05-14T02:36:28.675Z,98.16
2023-05-14T02:37:28.655Z,96.68
2023-05-14T02:38:28.637Z,95.50
2023-05-14T02:39:28.632Z,94.48
2023-05-14T02:40:28.676Z,93.51
2023-05-14T02:41:28.606Z,93.30
2023-05-14T02:42:28.612Z,92.74
2023-05-14T02:43:28.584Z,92.54
2023-05-14T02:44:28.596Z,92.44
2023-05-14T02:45:28.592Z,92.74
2023-05-14T02:46:28.596Z,92.54
2023-05-14T02:47:28.605Z,92.95
2023-05-14T02:48:28.535Z,92.33
2023-05-14T02:49:28.531Z,92.03
2023-05-14T02:50:28.549Z,92.13
2023-05-14T02:51:28.466Z,91.93
2023-05-14T02:52:28.444Z,91.93
2023-05-14T02:53:28.436Z,91.82
2023-05-14T02:54:28.455Z,91.51
2023-05-14T02:55:28.414Z,91.67
2023-05-14T02:56:28.429Z,91.51
2023-05-14T02:57:28.413Z,91.27
2023-05-14T02:58:28.684Z,91.37
2023-05-14T02:59:28.402Z,91.06
2023-05-14T03:00:28.380Z,91.10
2023-05-14T03:01:28.507Z,91.61
2023-05-14T03:02:28.425Z,91.61
2023-05-14T03:03:28.393Z,91.82
2023-05-14T03:04:28.324Z,91.31
2023-05-14T03:05:28.308Z,91.51
2023-05-14T03:06:28.304Z,91.51
2023-05-14T03:07:28.275Z,92.13
2023-05-14T03:08:28.329Z,91.31
2023-05-14T03:09:28.279Z,91.72
2023-05-14T03:10:28.268Z,91.72
2023-05-14T03:11:28.238Z,92.03
2023-05-14T03:12:28.279Z,92.13
2023-05-14T03:13:28.250Z,91.93
2023-05-14T03:14:28.237Z,92.23
2023-05-14T03:15:28.200Z,92.54
2023-05-14T03:16:28.223Z,92.54
2023-05-14T03:17:28.264Z,92.48
2023-05-14T03:18:28.224Z,92.07
2023-05-14T03:19:28.281Z,92.79
2023-05-14T03:20:28.184Z,92.89
2023-05-14T03:21:28.161Z,92.99
2023-05-14T03:22:28.206Z,92.48
2023-05-14T03:23:28.127Z,93.10
2023-05-14T03:24:28.173Z,93.10
2023-05-14T03:25:28.101Z,93.30
2023-05-14T03:26:28.169Z,93.20
2023-05-14T03:27:28.107Z,93.10
2023-05-14T03:28:28.075Z,92.99
2023-05-14T03:29:28.072Z,92.89
2023-05-14T03:30:28.112Z,92.89
2023-05-14T03:31:28.188Z,92.79
2023-05-14T03:32:28.078Z,92.58
2023-05-14T03:33:28.017Z,92.69
2023-05-14T03:34:28.045Z,92.27
2023-05-14T03:35:28.005Z,92.38
2023-05-14T03:36:28.019Z,92.17
2023-05-14T03:37:27.980Z,92.07
2023-05-14T03:38:27.985Z,92.03
2023-05-14T03:39:27.984Z,92.03
2023-05-14T03:40:27.993Z,91.82
2023-05-14T03:41:27.965Z,92.03
2023-05-14T03:42:27.939Z,92.13
2023-05-14T03:43:27.926Z,91.82
2023-05-14T03:44:27.919Z,91.51
2023-05-14T03:45:27.934Z,91.72
2023-05-14T03:46:27.943Z,91.41
2023-05-14T03:47:27.919Z,91.72
2023-05-14T03:48:28.101Z,91.31
2023-05-14T03:49:27.876Z,91.20
2023-05-14T03:50:27.916Z,91.16
2023-05-14T03:51:27.841Z,90.95
2023-05-14T03:52:27.837Z,90.95
2023-05-14T03:53:27.873Z,91.06
2023-05-14T03:54:27.824Z,91.16
2023-05-14T03:55:27.841Z,91.20
2023-05-14T03:56:27.810Z,91.41
2023-05-14T03:57:27.787Z,91.72
2023-05-14T03:58:27.786Z,91.82
2023-05-14T03:59:27.817Z,91.82
2023-05-14T04:00:27.792Z,91.61
2023-05-14T04:01:27.746Z,92.23
2023-05-14T04:02:27.798Z,91.78
2023-05-14T04:03:27.912Z,91.67
2023-05-14T04:04:27.767Z,91.37
2023-05-14T04:05:27.706Z,91.27
2023-05-14T04:06:27.693Z,91.57
2023-05-14T04:07:27.679Z,91.37
2023-05-14T04:08:27.677Z,91.88
2023-05-14T04:09:27.686Z,92.08
2023-05-14T04:10:27.654Z,91.67
2023-05-14T04:11:27.632Z,91.67
2023-05-14T04:12:27.624Z,91.78
2023-05-14T04:13:27.649Z,91.67
2023-05-14T04:14:27.661Z,91.37
2023-05-14T04:15:27.600Z,91.47
2023-05-14T04:16:27.639Z,91.27
2023-05-14T04:17:27.659Z,91.57
2023-05-14T04:18:27.647Z,91.16
2023-05-14T04:19:27.562Z,91.16
2023-05-14T04:20:27.557Z,91.06
2023-05-14T04:21:27.543Z,90.95
2023-05-14T04:22:27.531Z,91.02
2023-05-14T04:23:27.559Z,90.61
2023-05-14T04:24:27.566Z,90.46
2023-05-14T04:25:27.497Z,89.95
2023-05-14T04:26:27.490Z,89.19
2023-05-14T04:27:27.494Z,88.78
2023-05-14T04:28:27.538Z,88.88
2023-05-14T04:29:27.476Z,88.12
2023-05-14T04:30:27.464Z,87.82
2023-05-14T04:31:27.453Z,87.41
2023-05-14T04:32:27.566Z,86.85
2023-05-14T04:33:27.402Z,86.44
2023-05-14T04:34:27.419Z,85.89
2023-05-14T04:35:27.380Z,85.14
2023-05-14T04:36:27.411Z,83.76
2023-05-14T04:37:27.358Z,82.15
2023-05-14T04:38:27.354Z,81.24
2023-05-14T04:39:27.397Z,80.48
2023-05-14T04:40:27.505Z,79.93
2023-05-14T04:41:27.322Z,78.98
2023-05-14T04:42:27.318Z,78.27
2023-05-14T04:43:27.306Z,78.02
2023-05-14T04:44:27.320Z,77.65
2023-05-14T04:45:27.333Z,78.61
2023-05-14T04:46:27.363Z,79.52
2023-05-14T04:47:27.297Z,79.93
2023-05-14T04:48:27.264Z,79.73
2023-05-14T04:49:27.292Z,79.97
2023-05-14T04:50:27.267Z,80.62
2023-05-14T04:51:27.238Z,81.34
2023-05-14T04:52:27.277Z,81.85
2023-05-14T04:53:27.241Z,82.29
2023-05-14T04:54:27.227Z,82.26
2023-05-14T04:55:27.210Z,81.65
2023-05-14T04:56:27.163Z,81.20
2023-05-14T04:57:27.171Z,80.65
2023-05-14T04:58:27.192Z,79.28
2023-05-14T04:59:27.157Z,78.53
2023-05-14T05:00:27.379Z,77.48
2023-05-14T05:01:27.177Z,75.98
2023-05-14T05:02:27.118Z,75.57
2023-05-14T05:03:27.192Z,74.41
2023-05-14T05:04:27.097Z,74.24
2023-05-14T05:05:27.127Z,73.63
2023-05-14T05:06:27.083Z,73.13
2023-05-14T05:07:27.090Z,73.26
2023-05-14T05:08:27.103Z,74.32
2023-05-14T05:09:27.050Z,75.27
2023-05-14T05:10:27.102Z,75.27
2023-05-14T05:11:27.047Z,76.42
2023-05-14T05:12:27.011Z,77.78
2023-05-14T05:13:27.051Z,78.43
2023-05-14T05:14:27.020Z,79.59
2023-05-14T05:15:26.970Z,79.90
2023-05-14T05:16:27.090Z,80.00
2023-05-14T05:17:26.997Z,79.00
2023-05-14T05:18:27.040Z,77.00
2023-05-14T05:19:39.537Z,75.30
2023-05-14T05:20:26.925Z,73.70
2023-05-14T05:21:26.916Z,73.60
2023-05-14T05:22:26.904Z,72.99
2023-05-14T05:23:26.918Z,73.63
2023-05-14T05:24:27.327Z,73.19
2023-05-14T05:25:26.866Z,72.99
2023-05-14T05:26:26.880Z,72.14
2023-05-14T05:27:26.850Z,71.73
2023-05-14T05:28:26.877Z,71.40
2023-05-14T05:29:26.860Z,69.81
2023-05-14T05:30:26.862Z,69.17
2023-05-14T05:31:26.835Z,67.58
2023-05-14T05:32:26.813Z,66.30
2023-05-14T05:33:26.850Z,65.90
2023-05-14T05:34:26.806Z,65.13
2023-05-14T05:35:26.800Z,64.09
2023-05-14T05:36:26.744Z,63.78
2023-05-14T05:37:26.791Z,63.52
2023-05-14T05:38:26.754Z,63.09
2023-05-14T05:39:26.742Z,62.38
2023-05-14T05:40:26.719Z,62.02
2023-05-14T05:41:26.694Z,59.70
2023-05-14T05:42:26.734Z,60.17
2023-05-14T05:43:26.671Z,59.34
2023-05-14T05:44:26.682Z,58.51
2023-05-14T05:45:26.672Z,58.48
2023-05-14T05:46:26.687Z,56.74
2023-05-14T05:47:26.736Z,56.54
2023-05-14T05:48:26.647Z,55.91
2023-05-14T05:49:26.636Z,56.16
2023-05-14T05:50:26.595Z,54.70
2023-05-14T05:51:26.617Z,55.38
2023-05-14T05:52:26.626Z,52.94
2023-05-14T05:53:26.612Z,53.34
2023-05-14T05:54:26.560Z,52.12
2023-05-14T05:55:26.552Z,51.94
2023-05-14T05:56:26.557Z,53.92
2023-05-14T05:57:26.533Z,51.82
2023-05-14T05:58:26.524Z,51.92
2023-05-14T05:59:26.541Z,51.29
2023-05-14T06:00:26.828Z,50.99
2023-05-14T06:01:26.566Z,51.94
2023-05-14T06:02:26.644Z,51.92
2023-05-14T06:03:26.527Z,51.89
2023-05-14T06:04:26.484Z,50.37
2023-05-14T06:05:26.569Z,50.57
2023-05-14T06:06:26.478Z,51.14
2023-05-14T06:07:26.458Z,50.94
2023-05-14T06:08:26.427Z,50.44
2023-05-14T06:09:26.418Z,50.26
2023-05-14T06:10:26.579Z,51.07
2023-05-14T06:11:26.392Z,51.27
2023-05-14T06:12:26.419Z,50.92
2023-05-14T06:13:26.379Z,49.97
2023-05-14T06:14:26.395Z,49.29
2023-05-14T06:15:26.371Z,49.07
2023-05-14T06:16:26.363Z,48.79
2023-05-14T06:17:26.359Z,49.40
2023-05-14T06:18:26.342Z,49.87
2023-05-14T06:19:26.370Z,49.90
2023-05-14T06:20:26.597Z,50.27
2023-05-14T06:21:26.293Z,48.22
2023-05-14T06:22:26.279Z,49.02
2023-05-14T06:23:26.292Z,49.30
2023-05-14T06:24:26.282Z,47.40
2023-05-14T06:25:26.267Z,47.88
2023-05-14T06:26:26.241Z,46.41
2023-05-14T06:27:26.220Z,47.78
2023-05-14T06:28:26.215Z,45.94
2023-05-14T06:29:26.259Z,46.31
2023-05-14T06:30:26.317Z,45.40
2023-05-14T06:31:26.242Z,44.78
2023-05-14T06:32:26.236Z,44.70
2023-05-14T06:33:26.227Z,45.20
2023-05-14T06:34:26.198Z,44.50
2023-05-14T06:35:26.155Z,43.88
2023-05-14T06:36:26.154Z,44.70
2023-05-14T06:37:26.124Z,44.10
2023-05-14T06:38:26.150Z,44.98
2023-05-14T06:39:26.129Z,44.16
2023-05-14T06:40:26.324Z,44.62
2023-05-14T06:41:26.103Z,42.61
2023-05-14T06:42:26.084Z,42.31
2023-05-14T06:43:26.124Z,42.96
2023-05-14T06:44:26.055Z,40.47
2023-05-14T06:45:26.053Z,42.58
2023-05-14T06:46:26.043Z,42.71
2023-05-14T06:47:26.110Z,43.10
2023-05-14T06:48:26.101Z,42.09
2023-05-14T06:49:26.032Z,43.16
2023-05-14T06:50:26.043Z,44.90
2023-05-14T06:51:25.981Z,45.36
2023-05-14T06:52:26.025Z,43.98
2023-05-14T06:53:25.995Z,44.26
2023-05-14T06:54:25.996Z,43.64
2023-05-14T06:55:25.974Z,43.62
2023-05-14T06:56:25.935Z,44.29
2023-05-14T06:57:25.922Z,41.34
2023-05-14T06:58:25.955Z,41.36
2023-05-14T06:59:25.913Z,42.35
2023-05-14T07:00:26.178Z,43.07
2023-05-14T07:01:25.940Z,42.79
2023-05-14T07:02:25.961Z,44.07
2023-05-14T07:03:25.866Z,45.18
2023-05-14T07:04:25.887Z,44.69
2023-05-14T07:05:25.846Z,45.47
2023-05-14T07:06:25.865Z,46.16
2023-05-14T07:07:25.875Z,46.06
2023-05-14T07:08:25.838Z,46.24
2023-05-14T07:09:25.824Z,44.90
2023-05-14T07:10:25.969Z,46.51
2023-05-14T07:11:25.795Z,44.42
2023-05-14T07:12:25.823Z,44.10
2023-05-14T07:13:27.704Z,43.52
2023-05-14T07:14:25.811Z,43.60
2023-05-14T07:15:25.783Z,44.10
2023-05-14T07:16:25.818Z,43.46
2023-05-14T07:17:25.846Z,41.82
2023-05-14T07:18:25.722Z,41.53
2023-05-14T07:19:25.733Z,43.03
2023-05-14T07:20:26.053Z,45.30
2023-05-14T07:21:25.691Z,45.48
2023-05-14T07:22:25.729Z,41.75
2023-05-14T07:23:25.686Z,40.54
2023-05-14T07:24:25.693Z,41.25
2023-05-14T07:25:25.686Z,42.86
2023-05-14T07:26:25.716Z,43.19
2023-05-14T07:27:25.665Z,42.71
2023-05-14T07:28:25.629Z,44.68
2023-05-14T07:29:25.637Z,42.75
2023-05-14T07:30:25.906Z,41.28
2023-05-14T07:31:25.676Z,40.56
2023-05-14T07:32:25.649Z,40.62
2023-05-14T07:33:25.580Z,38.23
2023-05-14T07:34:25.618Z,37.73
2023-05-14T07:35:25.559Z,38.58
2023-05-14T07:36:25.545Z,40.60
2023-05-14T07:37:25.534Z,42.03
2023-05-14T07:38:25.528Z,43.01
2023-05-14T07:39:25.620Z,44.40
2023-05-14T07:40:25.877Z,42.86
2023-05-14T07:41:25.503Z,42.09
2023-05-14T07:42:35.368Z,43.38
2023-05-14T07:43:25.531Z,42.27
2023-05-14T07:44:25.526Z,41.87
2023-05-14T07:45:25.561Z,42.53
2023-05-14T07:46:26.293Z,41.50
2023-05-14T07:47:26.313Z,41.47
2023-05-14T07:48:25.514Z,41.63
2023-05-14T07:49:25.434Z,41.34
2023-05-14T07:50:25.576Z,42.03
2023-05-14T07:51:25.406Z,42.55
2023-05-14T07:52:25.477Z,41.55
2023-05-14T07:53:25.410Z,43.41
2023-05-14T07:54:25.430Z,43.16
2023-05-14T07:55:25.369Z,42.33
2023-05-14T07:56:25.360Z,42.35
2023-05-14T07:57:25.379Z,41.67
2023-05-14T07:58:25.346Z,41.60
2023-05-14T07:59:25.347Z,42.39
2023-05-14T08:00:25.539Z,42.43
2023-05-14T08:01:25.311Z,42.33
2023-05-14T08:02:25.454Z,42.57
2023-05-14T08:03:25.446Z,42.19
2023-05-14T08:04:25.393Z,42.01
2023-05-14T08:05:25.281Z,42.01
2023-05-14T08:06:25.298Z,40.88
2023-05-14T08:07:25.311Z,39.36
2023-05-14T08:08:25.256Z,38.72
2023-05-14T08:09:25.276Z,39.79
2023-05-14T08:10:25.521Z,38.59
2023-05-14T08:11:25.274Z,38.55
2023-05-14T08:12:25.203Z,36.16
2023-05-14T08:13:25.239Z,37.34
2023-05-14T08:14:25.200Z,37.89
2023-05-14T08:15:27.598Z,37.22
2023-05-14T08:16:25.280Z,39.51
2023-05-14T08:17:25.178Z,40.25
2023-05-14T08:18:25.193Z,42.13
2023-05-14T08:19:25.178Z,42.94
2023-05-14T08:20:25.421Z,40.06
2023-05-14T08:21:25.133Z,39.95
2023-05-14T08:22:25.137Z,40.50
2023-05-14T08:23:25.142Z,40.90
2023-05-14T08:24:25.114Z,41.39
2023-05-14T08:25:25.140Z,43.98
2023-05-14T08:26:25.114Z,43.80
2023-05-14T08:27:25.072Z,43.75
2023-05-14T08:28:25.072Z,43.35
2023-05-14T08:29:25.072Z,44.11
2023-05-14T08:30:25.538Z,44.33
2023-05-14T08:31:25.152Z,45.47
2023-05-14T08:32:25.055Z,47.11
2023-05-14T08:33:25.059Z,48.24
2023-05-14T08:34:25.021Z,49.74
2023-05-14T08:35:25.030Z,48.94
2023-05-14T08:36:36.224Z,47.96
2023-05-14T08:37:25.007Z,47.69
2023-05-14T08:38:25.186Z,49.11
2023-05-14T08:39:24.986Z,50.31
2023-05-14T08:40:25.281Z,50.79
2023-05-14T08:41:24.958Z,48.58
2023-05-14T08:42:24.952Z,48.66
2023-05-14T08:43:24.945Z,47.26
2023-05-14T08:44:25.089Z,48.66
2023-05-14T08:45:24.917Z,47.76
2023-05-14T08:46:25.606Z,50.26
2023-05-14T08:47:24.957Z,48.16
2023-05-14T08:48:24.965Z,49.19
2023-05-14T08:49:25.108Z,49.49
2023-05-14T08:50:25.262Z,50.29
2023-05-14T08:51:24.867Z,49.87
2023-05-14T08:52:24.998Z,49.87
2023-05-14T08:53:24.852Z,44.73
2023-05-14T08:54:24.860Z,46.20
2023-05-14T08:55:24.808Z,45.66
2023-05-14T08:56:24.833Z,44.65
2023-05-14T08:57:24.963Z,44.35
2023-05-14T08:58:24.809Z,45.61
2023-05-14T08:59:24.918Z,42.99
2023-05-14T09:00:25.172Z,44.29
2023-05-14T09:01:25.468Z,44.61
2023-05-14T09:02:25.017Z,44.46
2023-05-14T09:03:24.769Z,45.18
2023-05-14T09:04:24.712Z,44.87
2023-05-14T09:05:24.721Z,45.00
2023-05-14T09:06:24.733Z,44.76
2023-05-14T09:07:24.685Z,42.75
2023-05-14T09:08:24.688Z,42.97
2023-05-14T09:09:24.676Z,42.39
2023-05-14T09:10:24.903Z,43.07
2023-05-14T09:11:24.666Z,45.56
2023-05-14T09:12:24.660Z,45.94
2023-05-14T09:13:25.816Z,43.68
2023-05-14T09:14:24.654Z,43.37
2023-05-14T09:15:24.612Z,42.53
2023-05-14T09:16:24.749Z,44.91
2023-05-14T09:17:24.706Z,46.75
2023-05-14T09:18:24.632Z,46.45
2023-05-14T09:19:24.584Z,48.37
2023-05-14T09:20:25.167Z,49.87
2023-05-14T09:21:24.573Z,48.45
2023-05-14T09:22:34.660Z,47.88
2023-05-14T09:23:24.688Z,44.60
2023-05-14T09:24:24.585Z,41.24
2023-05-14T09:25:24.512Z,40.68
2023-05-14T09:26:24.543Z,39.33
2023-05-14T09:27:24.648Z,42.21
2023-05-14T09:28:24.483Z,44.37
2023-05-14T09:29:24.463Z,45.55
2023-05-14T09:30:24.614Z,45.35
2023-05-14T09:31:24.581Z,47.88
2023-05-14T09:32:24.550Z,42.77
2023-05-14T09:33:24.415Z,41.31
2023-05-14T09:34:24.425Z,40.06
2023-05-14T09:35:24.407Z,42.23
2023-05-14T09:36:24.532Z,41.99
2023-05-14T09:37:34.498Z,38.68
2023-05-14T09:38:24.443Z,38.05
2023-05-14T09:39:24.388Z,39.39
2023-05-14T09:40:25.152Z,41.20
2023-05-14T09:41:24.365Z,43.31
2023-05-14T09:42:24.356Z,44.73
2023-05-14T09:43:24.322Z,46.45
2023-05-14T09:44:24.451Z,48.10
2023-05-14T09:45:24.322Z,47.99
2023-05-14T09:46:24.311Z,48.19
2023-05-14T09:47:24.402Z,47.61
2023-05-14T09:48:24.392Z,48.11
2023-05-14T09:49:24.345Z,47.39
2023-05-14T09:50:24.471Z,48.02
2023-05-14T09:51:24.306Z,46.77
2023-05-14T09:52:24.242Z,48.79
2023-05-14T09:53:24.383Z,47.37
2023-05-14T09:54:24.236Z,44.81
2023-05-14T09:55:24.240Z,45.66
2023-05-14T09:56:24.198Z,43.37
2023-05-14T09:57:24.176Z,44.87
2023-05-14T09:58:25.119Z,43.89
2023-05-14T09:59:24.169Z,45.76
2023-05-14T10:00:24.309Z,45.57
2023-05-14T10:01:24.222Z,44.18
2023-05-14T10:02:24.214Z,41.00
2023-05-14T10:03:24.270Z,35.95
2023-05-14T10:04:24.206Z,38.88
2023-05-14T10:05:24.097Z,37.15
2023-05-14T10:06:24.144Z,39.38
2023-05-14T10:07:24.211Z,36.36
2023-05-14T10:08:24.109Z,36.10
2023-05-14T10:09:24.388Z,38.24
2023-05-14T10:10:24.459Z,40.76
2023-05-14T10:11:24.044Z,42.17
2023-05-14T10:12:24.054Z,43.13
2023-05-14T10:13:24.055Z,46.06
2023-05-14T10:14:24.039Z,44.13
2023-05-14T10:15:24.009Z,46.07
2023-05-14T10:16:24.536Z,45.31
2023-05-14T10:17:24.733Z,45.84
2023-05-14T10:18:23.994Z,46.86
2023-05-14T10:19:24.052Z,47.76
2023-05-14T10:20:24.431Z,48.99
2023-05-14T10:21:23.956Z,48.69
2023-05-14T10:22:24.655Z,51.01
2023-05-14T10:23:23.932Z,51.04
2023-05-14T10:24:24.912Z,50.11
2023-05-14T10:25:23.923Z,48.99
2023-05-14T10:26:24.210Z,48.86
2023-05-14T10:27:23.904Z,48.57
2023-05-14T10:28:23.882Z,48.16
2023-05-14T10:29:23.868Z,48.57
2023-05-14T10:30:24.247Z,50.87
2023-05-14T10:31:23.979Z,47.26
2023-05-14T10:32:23.876Z,48.54
2023-05-14T10:33:23.909Z,47.96
2023-05-14T10:34:23.863Z,51.44
2023-05-14T10:35:23.805Z,51.39
2023-05-14T10:36:23.900Z,50.89
2023-05-14T10:37:23.850Z,50.29
2023-05-14T10:38:23.848Z,50.79
2023-05-14T10:39:23.809Z,49.66
2023-05-14T10:40:24.044Z,50.16
2023-05-14T10:41:23.764Z,49.90
2023-05-14T10:42:23.780Z,49.62
2023-05-14T10:43:23.729Z,48.55
2023-05-14T10:44:23.848Z,46.77
2023-05-14T10:45:23.725Z,46.88
2023-05-14T10:46:23.776Z,44.84
2023-05-14T10:47:23.684Z,40.98
2023-05-14T10:48:23.768Z,41.55
2023-05-14T10:49:35.605Z,35.35
2023-05-14T10:50:24.144Z,35.88
2023-05-14T10:51:23.719Z,37.32
2023-05-14T10:52:23.653Z,35.02
2023-05-14T10:53:23.618Z,34.48
2023-05-14T10:54:23.618Z,36.16
2023-05-14T10:55:23.766Z,37.98
2023-05-14T10:56:23.613Z,37.15
2023-05-14T10:57:23.598Z,38.79
2023-05-14T10:58:23.572Z,39.61
2023-05-14T10:59:23.589Z,40.04
2023-05-14T11:00:23.697Z,41.30
2023-05-14T11:01:23.589Z,47.71
2023-05-14T11:02:23.592Z,48.88
2023-05-14T11:03:23.616Z,42.23
2023-05-14T11:04:23.582Z,47.09
2023-05-14T11:05:23.510Z,43.93
2023-05-14T11:06:23.495Z,41.74
2023-05-14T11:07:23.496Z,44.15
2023-05-14T11:08:26.463Z,43.45
2023-05-14T11:09:23.513Z,43.75
2023-05-14T11:10:23.716Z,44.84
2023-05-14T11:11:23.450Z,41.25
2023-05-14T11:12:23.435Z,42.69
2023-05-14T11:13:23.487Z,45.18
2023-05-14T11:14:23.420Z,41.61
2023-05-14T11:15:23.653Z,44.41
2023-05-14T11:16:24.133Z,45.90
2023-05-14T11:17:23.654Z,47.18
2023-05-14T11:18:23.405Z,46.48
2023-05-14T11:19:23.363Z,42.15
2023-05-14T11:20:23.758Z,42.86
2023-05-14T11:21:23.396Z,41.39
2023-05-14T11:22:23.365Z,45.92
2023-05-14T11:23:23.361Z,43.87
2023-05-14T11:24:23.314Z,45.98
2023-05-14T11:25:23.307Z,44.09
2023-05-14T11:26:23.399Z,44.89
2023-05-14T11:27:23.309Z,49.90
2023-05-14T11:28:23.310Z,45.18
2023-05-14T11:29:23.265Z,41.99
2023-05-14T11:30:23.548Z,41.89
2023-05-14T11:31:23.294Z,43.63
2023-05-14T11:32:23.272Z,42.24
2023-05-14T11:33:23.227Z,42.93
2023-05-14T11:34:23.214Z,44.65
2023-05-14T11:35:23.214Z,43.99
2023-05-14T11:36:23.244Z,45.81
2023-05-14T11:37:23.236Z,47.61
2023-05-14T11:38:23.315Z,49.94
2023-05-14T11:39:23.187Z,49.07
2023-05-14T11:40:23.375Z,50.44
2023-05-14T11:41:23.581Z,49.26
2023-05-14T11:42:23.155Z,50.37
2023-05-14T11:43:23.154Z,49.16
2023-05-14T11:44:23.126Z,49.79
2023-05-14T11:45:23.180Z,52.22
2023-05-14T11:46:23.140Z,52.47
2023-05-14T11:47:23.089Z,52.77
2023-05-14T11:48:23.087Z,54.17
2023-05-14T11:49:23.076Z,51.99
2023-05-14T11:50:23.455Z,52.12
2023-05-14T11:51:23.093Z,52.82
2023-05-14T11:52:23.059Z,52.39
2023-05-14T11:53:23.014Z,52.59
2023-05-14T11:54:23.016Z,54.00
2023-05-14T11:55:23.021Z,51.79
2023-05-14T11:56:23.033Z,52.62
2023-05-14T11:57:23.001Z,54.43
2023-05-14T11:58:23.016Z,52.42
2023-05-14T11:59:22.967Z,53.70
2023-05-14T12:00:23.099Z,54.07
2023-05-14T12:01:22.973Z,52.55
2023-05-14T12:02:23.005Z,50.31
2023-05-14T12:03:23.175Z,51.39
2023-05-14T12:04:22.963Z,52.57
2023-05-14T12:05:23.014Z,49.96
2023-05-14T12:06:22.899Z,50.26
2023-05-14T12:07:22.868Z,50.04
2023-05-14T12:08:22.875Z,49.54
2023-05-14T12:09:22.880Z,50.54
2023-05-14T12:10:23.128Z,45.21
2023-05-14T12:11:22.992Z,46.81
2023-05-14T12:12:22.839Z,47.42
2023-05-14T12:13:22.834Z,46.04
2023-05-14T12:14:22.867Z,46.54
2023-05-14T12:15:22.792Z,45.66
2023-05-14T12:16:22.894Z,46.06
2023-05-14T12:17:22.843Z,47.06
2023-05-14T12:18:25.080Z,46.86
2023-05-14T12:19:22.801Z,47.64
2023-05-14T12:20:23.109Z,51.12
2023-05-14T12:21:22.729Z,47.79
2023-05-14T12:22:22.766Z,46.99
2023-05-14T12:23:22.713Z,44.92
2023-05-14T12:24:22.716Z,44.24
2023-05-14T12:25:22.685Z,45.96
2023-05-14T12:26:22.702Z,46.86
2023-05-14T12:27:22.659Z,47.44
2023-05-14T12:28:22.681Z,47.16
2023-05-14T12:29:22.660Z,45.96
2023-05-14T12:30:22.669Z,46.14
2023-05-14T12:31:22.728Z,49.02
2023-05-14T12:32:22.613Z,46.12
2023-05-14T12:33:22.631Z,44.51
2023-05-14T12:34:22.605Z,45.12
2023-05-14T12:35:23.235Z,46.19
2023-05-14T12:36:22.648Z,44.87
2023-05-14T12:37:22.624Z,45.97
2023-05-14T12:38:22.582Z,47.67
2023-05-14T12:39:22.570Z,51.15
2023-05-14T12:40:22.688Z,50.15
2023-05-14T12:41:22.542Z,44.55
2023-05-14T12:42:22.589Z,44.55
2023-05-14T12:43:22.524Z,44.27
2023-05-14T12:44:22.593Z,46.35
2023-05-14T12:45:22.692Z,45.75
2023-05-14T12:46:22.549Z,44.05
2023-05-14T12:47:22.604Z,46.07
2023-05-14T12:48:22.516Z,48.65
2023-05-14T12:49:22.443Z,47.65
2023-05-14T12:50:22.863Z,45.15
2023-05-14T12:51:22.441Z,46.35
2023-05-14T12:52:33.340Z,46.33